Terminal Aerodrome Forecast
Issued by NWS Wilmington, OH

Current Version | Previous Version | Graphics & Text | Print | Product List | Glossary On
Versions: 1 2 3 4 5 6 7 8 9 10 11 12
000
FTUS41 KILN 091100
TAFCMH
TAF
KCMH 091127Z 0912/1012 24005KT P6SM SKC
     FM091500 27010KT P6SM VCSH BKN040
     FM100000 31006KT P6SM SCT040
     FM100300 35003KT P6SM SKC=

USA.gov is the U.S. government's official web portal to all federal, state and local government web resources and services.